createdAt,value
2023-05-08T00:01:55.427Z,8.77
2023-05-08T00:04:23.478Z,8.40
2023-05-08T00:06:52.971Z,8.00
2023-05-08T00:09:21.155Z,7.85
2023-05-08T00:11:49.489Z,8.18
2023-05-08T00:14:17.535Z,8.10
2023-05-08T00:16:45.739Z,8.20
2023-05-08T00:19:15.179Z,8.10
2023-05-08T00:21:43.234Z,7.65
2023-05-08T00:24:11.269Z,8.10
2023-05-08T00:26:39.316Z,8.15
2023-05-08T00:29:07.368Z,8.63
2023-05-08T00:31:35.437Z,7.93
2023-05-08T00:34:03.772Z,7.72
2023-05-08T00:36:33.383Z,7.97
2023-05-08T00:39:01.568Z,7.95
2023-05-08T00:41:29.687Z,8.07
2023-05-08T00:43:58.014Z,8.13
2023-05-08T00:46:26.419Z,8.43
2023-05-08T00:48:54.872Z,8.50
2023-05-08T00:51:23.687Z,7.93
2023-05-08T00:53:53.210Z,8.30
2023-05-08T00:56:22.322Z,8.25
2023-05-08T00:58:50.848Z,7.47
2023-05-08T01:01:21.808Z,8.32
2023-05-08T01:03:50.088Z,8.30
2023-05-08T01:06:21.396Z,8.07
2023-05-08T01:08:52.039Z,8.10
2023-05-08T01:11:35.112Z,8.15
2023-05-08T01:14:12.562Z,8.07
2023-05-08T01:16:45.347Z,8.60
2023-05-08T01:19:41.976Z,8.30
2023-05-08T01:22:18.427Z,7.85
2023-05-08T01:25:17.871Z,7.40
2023-05-08T01:28:15.630Z,8.65
2023-05-08T01:31:03.583Z,8.38
2023-05-08T01:33:39.296Z,7.85
2023-05-08T01:36:18.931Z,8.32
2023-05-08T01:38:54.843Z,8.00
2023-05-08T01:41:27.355Z,7.97
2023-05-08T01:44:07.368Z,8.00
2023-05-08T01:46:35.564Z,7.82
2023-05-08T01:49:10.356Z,9.00
2023-05-08T01:51:43.725Z,8.57
2023-05-08T01:54:16.610Z,8.48
2023-05-08T01:56:48.122Z,8.82
2023-05-08T01:59:20.896Z,8.70
2023-05-08T02:01:50.450Z,8.52
2023-05-08T02:04:21.994Z,8.35
2023-05-08T02:06:52.175Z,8.30
2023-05-08T02:09:23.732Z,8.25
2023-05-08T02:11:53.223Z,8.65
2023-05-08T02:14:22.188Z,8.98
2023-05-08T02:16:52.746Z,9.10
2023-05-08T02:19:24.510Z,8.73
2023-05-08T02:21:54.030Z,8.68
2023-05-08T02:24:23.471Z,9.40
2023-05-08T02:26:54.443Z,8.80
2023-05-08T02:29:25.028Z,9.18
2023-05-08T02:31:56.089Z,8.25
2023-05-08T02:34:26.796Z,8.60
2023-05-08T02:36:55.558Z,9.15
2023-05-08T02:39:27.282Z,8.93
2023-05-08T02:41:55.471Z,8.68
2023-05-08T02:44:24.921Z,9.23
2023-05-08T02:46:58.458Z,9.23
2023-05-08T02:49:33.169Z,9.40
2023-05-08T02:52:06.815Z,9.32
2023-05-08T02:54:43.430Z,9.50
2023-05-08T02:57:19.832Z,9.93
2023-05-08T02:59:55.870Z,10.15
2023-05-08T03:02:33.383Z,9.60
2023-05-08T03:05:06.828Z,10.02
2023-05-08T03:07:39.450Z,9.32
2023-05-08T03:10:13.094Z,9.57
2023-05-08T03:12:44.110Z,10.00
2023-05-08T03:15:18.973Z,9.70
2023-05-08T03:17:48.030Z,9.82
2023-05-08T03:20:19.834Z,10.05
2023-05-08T03:22:49.684Z,10.18
2023-05-08T03:25:19.702Z,9.57
2023-05-08T03:27:50.201Z,9.60
2023-05-08T03:30:19.633Z,9.88
2023-05-08T03:32:58.573Z,10.30
2023-05-08T03:35:29.446Z,10.25
2023-05-08T03:37:57.837Z,9.85
2023-05-08T03:40:26.160Z,10.35
2023-05-08T03:42:54.581Z,10.93
2023-05-08T03:45:23.676Z,9.85
2023-05-08T03:47:53.878Z,10.85
2023-05-08T03:50:23.062Z,11.13
2023-05-08T03:52:53.349Z,10.65
2023-05-08T03:55:21.698Z,10.45
2023-05-08T03:57:57.266Z,10.00
2023-05-08T04:00:33.111Z,10.43
2023-05-08T04:03:13.456Z,11.13
2023-05-08T04:05:51.393Z,10.68
2023-05-08T04:08:27.141Z,10.20
2023-05-08T04:11:05.393Z,11.27
2023-05-08T04:13:38.561Z,10.68
2023-05-08T04:16:13.152Z,11.98
2023-05-08T04:18:46.817Z,10.93
2023-05-08T04:21:21.440Z,10.70
2023-05-08T04:23:52.798Z,11.25
2023-05-08T04:26:20.956Z,10.30
2023-05-08T04:28:50.484Z,10.25
2023-05-08T04:31:19.051Z,10.43
2023-05-08T04:33:48.031Z,9.75
2023-05-08T04:36:16.196Z,10.52
2023-05-08T04:38:45.968Z,9.77
2023-05-08T04:41:16.111Z,10.38
2023-05-08T04:43:44.854Z,9.80
2023-05-08T04:46:13.572Z,10.15
2023-05-08T04:48:41.688Z,10.05
2023-05-08T04:51:09.723Z,10.00
2023-05-08T04:53:37.860Z,9.85
2023-05-08T04:56:06.467Z,10.02
2023-05-08T04:58:36.081Z,9.55
2023-05-08T05:01:04.699Z,9.98
2023-05-08T05:03:34.058Z,11.07
2023-05-08T05:06:02.771Z,10.07
2023-05-08T05:08:30.788Z,10.70
2023-05-08T05:10:59.909Z,9.40
2023-05-08T05:13:28.962Z,10.55
2023-05-08T05:16:00.485Z,11.25
2023-05-08T05:18:28.602Z,10.15
2023-05-08T05:20:59.277Z,10.55
2023-05-08T05:23:28.082Z,10.85
2023-05-08T05:25:56.127Z,11.15
2023-05-08T05:28:24.338Z,11.10
2023-05-08T05:30:52.676Z,11.23
2023-05-08T05:33:22.177Z,11.07
2023-05-08T05:35:50.667Z,11.05
2023-05-08T05:38:18.834Z,11.68
2023-05-08T05:40:46.856Z,10.82
2023-05-08T05:43:14.946Z,11.05
2023-05-08T05:45:43.041Z,10.98
2023-05-08T05:48:11.466Z,10.73
2023-05-08T05:50:40.950Z,11.70
2023-05-08T05:53:09.904Z,11.65
2023-05-08T05:55:38.233Z,10.75
2023-05-08T05:58:06.785Z,12.00
2023-05-08T06:00:36.297Z,11.43
2023-05-08T06:03:04.835Z,11.18
2023-05-08T06:05:33.095Z,11.57
2023-05-08T06:08:02.652Z,11.38
2023-05-08T06:10:31.091Z,11.07
2023-05-08T06:12:59.203Z,10.88
2023-05-08T06:15:27.943Z,11.45
2023-05-08T06:17:56.109Z,10.75
2023-05-08T06:20:26.293Z,10.60
2023-05-08T06:22:54.644Z,11.82
2023-05-08T06:25:24.217Z,11.05
2023-05-08T06:27:52.276Z,10.77
2023-05-08T06:30:20.314Z,10.98
2023-05-08T06:32:48.403Z,10.98
2023-05-08T06:35:18.535Z,11.20
2023-05-08T06:37:46.648Z,11.00
2023-05-08T06:40:15.112Z,11.27
2023-05-08T06:42:44.577Z,10.38
2023-05-08T06:45:13.602Z,10.95
2023-05-08T06:47:41.893Z,10.80
2023-05-08T06:50:10.837Z,10.77
2023-05-08T06:52:39.118Z,10.52
2023-05-08T06:55:07.806Z,10.27
2023-05-08T06:57:36.068Z,10.73
2023-05-08T07:00:06.231Z,11.10
2023-05-08T07:02:34.304Z,10.05
2023-05-08T07:05:03.299Z,11.13
2023-05-08T07:07:31.565Z,10.45
2023-05-08T07:09:59.715Z,10.68
2023-05-08T07:12:27.730Z,10.40
2023-05-08T07:14:57.258Z,10.60
2023-05-08T07:17:27.595Z,10.63
2023-05-08T07:19:55.644Z,9.75
2023-05-08T07:22:23.652Z,10.32
2023-05-08T07:24:51.715Z,11.05
2023-05-08T07:27:20.305Z,10.60
2023-05-08T07:29:48.358Z,10.57
2023-05-08T07:32:16.433Z,10.88
2023-05-08T07:34:45.906Z,11.27
2023-05-08T07:37:14.146Z,10.52
2023-05-08T07:39:42.234Z,10.50
2023-05-08T07:42:10.243Z,10.50
2023-05-08T07:44:51.030Z,10.68
2023-05-08T07:47:22.714Z,9.75
2023-05-08T07:49:52.627Z,10.27
2023-05-08T07:52:20.644Z,10.82
2023-05-08T07:54:48.809Z,11.02
2023-05-08T07:57:16.819Z,9.98
2023-05-08T07:59:44.845Z,10.48
2023-05-08T08:02:13.139Z,10.63
2023-05-08T08:04:41.276Z,10.48
2023-05-08T08:07:10.658Z,10.10
2023-05-08T08:09:38.718Z,10.15
2023-05-08T08:12:07.115Z,10.00
2023-05-08T08:14:35.169Z,10.13
2023-05-08T08:17:03.216Z,10.40
2023-05-08T08:19:31.275Z,10.30
2023-05-08T08:21:59.437Z,10.85
2023-05-08T08:24:29.777Z,10.55
2023-05-08T08:26:58.167Z,11.43
2023-05-08T08:29:26.176Z,10.30
2023-05-08T08:31:54.220Z,10.52
2023-05-08T08:34:22.259Z,11.43
2023-05-08T08:36:50.437Z,10.73
2023-05-08T08:39:18.450Z,10.98
2023-05-08T08:41:48.163Z,10.75
2023-05-08T08:44:16.275Z,10.98
2023-05-08T08:46:49.331Z,10.65
2023-05-08T08:49:20.113Z,10.82
2023-05-08T08:51:52.815Z,11.07
2023-05-08T08:54:24.293Z,11.02
2023-05-08T08:56:54.403Z,11.02
2023-05-08T08:59:26.229Z,10.98
2023-05-08T09:01:57.824Z,11.43
2023-05-08T09:04:27.537Z,11.40
2023-05-08T09:06:58.166Z,10.93
2023-05-08T09:09:26.727Z,11.40
2023-05-08T09:11:56.124Z,11.25
2023-05-08T09:14:25.849Z,11.27
2023-05-08T09:16:55.026Z,11.10
2023-05-08T09:19:27.066Z,11.23
2023-05-08T09:21:56.465Z,10.88
2023-05-08T09:24:24.659Z,11.45
2023-05-08T09:26:52.693Z,11.75
2023-05-08T09:29:22.659Z,11.50
2023-05-08T09:31:52.211Z,11.13
2023-05-08T09:34:28.520Z,11.00
2023-05-08T09:36:57.372Z,11.93
2023-05-08T09:39:26.915Z,10.95
2023-05-08T09:41:59.561Z,11.25
2023-05-08T09:44:29.254Z,10.95
2023-05-08T09:47:12.290Z,11.73
2023-05-08T09:49:40.911Z,11.77
2023-05-08T09:52:09.551Z,11.85
2023-05-08T09:54:37.736Z,11.98
2023-05-08T09:57:13.416Z,11.82
2023-05-08T09:59:42.821Z,12.25
2023-05-08T10:02:16.318Z,10.88
2023-05-08T10:04:44.495Z,11.50
2023-05-08T10:07:12.565Z,11.40
2023-05-08T10:09:50.269Z,11.52
2023-05-08T10:12:19.759Z,11.98
2023-05-08T10:14:49.226Z,12.27
2023-05-08T10:17:22.090Z,11.32
2023-05-08T10:19:56.292Z,11.73
2023-05-08T10:22:26.626Z,12.23
2023-05-08T10:24:58.669Z,13.23
2023-05-08T10:27:35.553Z,12.27
2023-05-08T10:30:06.123Z,11.63
2023-05-08T10:32:40.670Z,12.15
2023-05-08T10:35:12.137Z,11.63
2023-05-08T10:37:42.382Z,12.43
2023-05-08T10:40:12.218Z,12.07
2023-05-08T10:42:41.125Z,11.80
2023-05-08T10:45:11.856Z,12.65
2023-05-08T10:47:52.587Z,12.18
2023-05-08T10:50:35.056Z,12.65
2023-05-08T10:53:09.338Z,12.27
2023-05-08T10:55:38.788Z,12.27
2023-05-08T10:58:11.424Z,11.52
2023-05-08T11:01:16.225Z,13.20
2023-05-08T11:03:47.290Z,12.50
2023-05-08T11:06:16.086Z,12.75
2023-05-08T11:08:49.800Z,12.73
2023-05-08T11:11:26.908Z,12.02
2023-05-08T11:14:00.599Z,12.82
2023-05-08T11:17:06.757Z,12.85
2023-05-08T11:19:37.446Z,12.57
2023-05-08T11:22:23.275Z,12.68
2023-05-08T11:24:55.658Z,13.55
2023-05-08T11:28:07.045Z,13.20
2023-05-08T11:30:37.710Z,12.80
2023-05-08T11:33:33.870Z,13.20
2023-05-08T11:36:14.099Z,13.93
2023-05-08T11:38:43.783Z,13.75
2023-05-08T11:41:21.749Z,13.43
2023-05-08T11:44:18.555Z,13.35
2023-05-08T11:46:51.925Z,12.93
2023-05-08T11:49:26.077Z,13.70
2023-05-08T11:52:00.487Z,13.52
2023-05-08T11:54:32.008Z,14.05
2023-05-08T11:57:01.920Z,13.30
2023-05-08T11:59:30.279Z,13.75
2023-05-08T12:02:07.904Z,13.32
2023-05-08T12:04:45.585Z,14.20
2023-05-08T12:07:16.192Z,13.20
2023-05-08T12:09:44.608Z,14.15
2023-05-08T12:12:12.915Z,14.63
2023-05-08T12:14:41.187Z,14.07
2023-05-08T12:17:09.618Z,13.60
2023-05-08T12:19:37.928Z,13.65
2023-05-08T12:22:06.255Z,14.02
2023-05-08T12:24:36.052Z,12.48
2023-05-08T12:27:05.146Z,12.52
2023-05-08T12:29:37.878Z,11.98
2023-05-08T12:32:06.772Z,12.98
2023-05-08T12:34:36.296Z,13.73
2023-05-08T12:37:06.769Z,13.70
2023-05-08T12:39:40.381Z,12.75
2023-05-08T12:42:08.860Z,13.50
2023-05-08T12:44:37.435Z,13.52
2023-05-08T12:47:07.149Z,12.30
2023-05-08T12:49:35.438Z,12.90
2023-05-08T12:52:08.696Z,13.13
2023-05-08T12:54:40.062Z,12.20
2023-05-08T12:57:12.868Z,12.88
2023-05-08T12:59:41.587Z,14.65
2023-05-08T13:02:17.864Z,13.05
2023-05-08T13:04:47.283Z,13.73
2023-05-08T13:07:15.864Z,13.60
2023-05-08T13:09:59.850Z,14.77
2023-05-08T13:12:28.291Z,14.80
2023-05-08T13:14:56.640Z,12.98
2023-05-08T13:17:25.162Z,14.43
2023-05-08T13:19:53.538Z,14.00
2023-05-08T13:22:23.215Z,14.55
2023-05-08T13:24:51.593Z,14.23
2023-05-08T13:27:21.571Z,14.05
2023-05-08T13:29:49.899Z,13.00
2023-05-08T13:32:18.666Z,13.70
2023-05-08T13:34:50.148Z,14.05
2023-05-08T13:37:19.354Z,13.95
2023-05-08T13:39:47.591Z,12.77
2023-05-08T13:42:15.907Z,12.68
2023-05-08T13:44:45.681Z,13.80
2023-05-08T13:47:13.982Z,12.55
2023-05-08T13:49:42.446Z,12.55
2023-05-08T13:52:10.657Z,12.55
2023-05-08T13:54:39.013Z,14.18
2023-05-08T13:57:08.163Z,12.68
2023-05-08T13:59:36.542Z,13.70
2023-05-08T14:02:06.302Z,15.02
2023-05-08T14:04:34.808Z,14.43
2023-05-08T14:07:03.085Z,13.70
2023-05-08T14:09:31.363Z,13.98
2023-05-08T14:11:59.801Z,14.20
2023-05-08T14:14:28.237Z,13.93
2023-05-08T14:16:56.546Z,13.68
2023-05-08T14:19:26.239Z,14.65
2023-05-08T14:21:54.566Z,13.60
2023-05-08T14:24:22.937Z,12.13
2023-05-08T14:26:51.243Z,11.60
2023-05-08T14:29:19.989Z,12.52
2023-05-08T14:31:48.332Z,11.85
2023-05-08T14:34:16.759Z,13.27
2023-05-08T14:36:46.435Z,13.15
2023-05-08T14:39:14.724Z,12.52
2023-05-08T14:41:51.222Z,11.25
2023-05-08T14:44:31.534Z,10.95
2023-05-08T14:46:59.934Z,10.35
2023-05-08T14:49:37.436Z,12.57
2023-05-08T14:52:08.538Z,11.60
2023-05-08T14:54:36.989Z,12.07
2023-05-08T14:57:05.567Z,10.55
2023-05-08T14:59:33.892Z,12.10
2023-05-08T15:02:02.249Z,11.27
2023-05-08T15:04:30.757Z,11.73
2023-05-08T15:06:59.059Z,11.98
2023-05-08T15:09:28.764Z,11.32
2023-05-08T15:11:57.093Z,10.70
2023-05-08T15:14:26.926Z,10.45
2023-05-08T15:16:55.291Z,9.60
2023-05-08T15:19:23.550Z,8.90
2023-05-08T15:21:51.791Z,10.32
2023-05-08T15:24:20.095Z,9.75
2023-05-08T15:26:50.340Z,10.63
2023-05-08T15:29:18.611Z,9.77
2023-05-08T15:31:47.032Z,9.48
2023-05-08T15:34:15.394Z,10.43
2023-05-08T15:36:43.761Z,10.13
2023-05-08T15:39:11.992Z,9.60
2023-05-08T15:41:41.348Z,10.65
2023-05-08T15:44:11.023Z,10.65
2023-05-08T15:46:39.302Z,10.90
2023-05-08T15:49:07.609Z,11.32
2023-05-08T15:51:35.986Z,11.90
2023-05-08T15:54:04.339Z,11.80
2023-05-08T15:56:32.757Z,11.35
2023-05-08T15:59:01.066Z,11.55
2023-05-08T16:01:30.817Z,11.07
2023-05-08T16:03:59.168Z,11.15
2023-05-08T16:06:27.645Z,10.55
2023-05-08T16:08:55.946Z,11.07
2023-05-08T16:11:24.342Z,11.15
2023-05-08T16:13:52.710Z,11.85
2023-05-08T16:16:21.073Z,11.80
2023-05-08T16:18:50.793Z,11.70
2023-05-08T16:21:19.151Z,12.10
2023-05-08T16:23:47.485Z,12.48
2023-05-08T16:26:16.651Z,11.27
2023-05-08T16:28:44.969Z,11.13
2023-05-08T16:31:13.197Z,11.32
2023-05-08T16:33:41.463Z,11.98
2023-05-08T16:36:11.280Z,13.60
2023-05-08T16:38:39.564Z,11.60
2023-05-08T16:41:09.184Z,10.48
2023-05-08T16:43:37.501Z,11.98
2023-05-08T16:46:07.479Z,11.18
2023-05-08T16:48:36.080Z,11.80
2023-05-08T16:51:04.523Z,11.25
2023-05-08T16:53:34.172Z,11.40
2023-05-08T16:56:02.458Z,11.20
2023-05-08T16:58:30.717Z,12.02
2023-05-08T17:00:59.094Z,11.98
2023-05-08T17:03:27.475Z,11.50
2023-05-08T17:05:55.812Z,11.95
2023-05-08T17:08:24.170Z,12.07
2023-05-08T17:10:54.849Z,12.45
2023-05-08T17:13:22.981Z,11.27
2023-05-08T17:18:19.053Z,12.18
2023-05-08T17:20:47.304Z,12.20
2023-05-08T17:23:15.463Z,12.80
2023-05-08T17:25:43.475Z,12.95
2023-05-08T17:28:12.947Z,12.65
2023-05-08T17:30:41.003Z,11.68
2023-05-08T17:33:09.096Z,12.52
2023-05-08T17:35:37.271Z,11.93
2023-05-08T17:38:05.297Z,12.50
2023-05-08T17:40:33.474Z,12.25
2023-05-08T17:43:01.596Z,11.77
2023-05-08T17:45:31.121Z,11.60
2023-05-08T17:47:59.345Z,11.90
2023-05-08T17:50:27.562Z,12.13
2023-05-08T17:52:55.700Z,11.45
2023-05-08T17:55:26.678Z,11.45
2023-05-08T17:57:55.922Z,12.13
2023-05-08T18:00:24.080Z,12.75
2023-05-08T18:02:55.546Z,12.30
2023-05-08T18:05:23.791Z,11.25
2023-05-08T18:07:52.319Z,11.95
2023-05-08T18:10:21.091Z,13.60
2023-05-08T18:12:49.172Z,14.05
2023-05-08T18:15:17.400Z,15.27
2023-05-08T18:17:45.612Z,15.88
2023-05-08T18:20:15.359Z,15.75
2023-05-08T18:22:43.490Z,15.98
2023-05-08T18:25:11.494Z,15.93
2023-05-08T18:27:41.164Z,16.65
2023-05-08T18:30:10.685Z,16.52
2023-05-08T18:32:38.826Z,16.45
2023-05-08T18:35:07.747Z,16.92
2023-05-08T18:37:37.182Z,17.58
2023-05-08T18:40:05.696Z,18.17
2023-05-08T18:42:33.850Z,18.63
2023-05-08T18:45:01.914Z,19.23
2023-05-08T18:47:29.966Z,15.70
2023-05-08T18:49:59.954Z,15.70
2023-05-08T18:52:28.074Z,15.85
2023-05-08T18:54:57.609Z,17.33
2023-05-08T18:57:25.697Z,17.00
2023-05-08T18:59:53.699Z,16.23
2023-05-08T19:02:24.743Z,17.13
2023-05-08T19:04:52.978Z,17.40
2023-05-08T19:07:21.379Z,16.95
2023-05-08T19:09:49.447Z,17.33
2023-05-08T19:12:18.908Z,17.10
2023-05-08T19:14:47.159Z,16.80
2023-05-08T19:17:15.328Z,17.20
2023-05-08T19:19:43.419Z,15.65
2023-05-08T19:22:11.476Z,17.45
2023-05-08T19:24:39.838Z,16.90
2023-05-08T19:27:07.946Z,16.67
2023-05-08T19:29:37.292Z,18.55
2023-05-08T19:32:05.973Z,18.73
2023-05-08T19:34:37.004Z,17.83
2023-05-08T19:37:05.148Z,17.95
2023-05-08T19:39:33.256Z,20.65
2023-05-08T19:42:01.306Z,21.02
2023-05-08T19:44:31.513Z,23.75
2023-05-08T19:47:03.146Z,22.65
2023-05-08T19:49:32.106Z,20.63
2023-05-08T19:52:00.409Z,17.95
2023-05-08T19:54:28.433Z,18.90
2023-05-08T19:56:56.468Z,18.65
2023-05-08T19:59:24.545Z,14.93
2023-05-08T20:01:53.705Z,18.95
2023-05-08T20:04:24.216Z,14.45
2023-05-08T20:06:52.268Z,14.60
2023-05-08T20:09:20.347Z,14.32
2023-05-08T20:11:48.373Z,15.65
2023-05-08T20:14:16.481Z,15.43
2023-05-08T20:16:44.576Z,15.52
2023-05-08T20:19:12.777Z,15.70
2023-05-08T20:21:42.216Z,15.70
2023-05-08T20:24:10.267Z,15.02
2023-05-08T20:26:38.357Z,15.20
2023-05-08T20:29:06.366Z,16.00
2023-05-08T20:31:34.522Z,16.70
2023-05-08T20:34:02.623Z,17.40
2023-05-08T20:36:31.324Z,17.83
2023-05-08T20:39:00.748Z,17.48
2023-05-08T20:41:28.857Z,18.45
2023-05-08T20:43:56.865Z,17.23
2023-05-08T20:46:24.946Z,17.75
2023-05-08T20:48:52.981Z,18.00
2023-05-08T20:51:21.047Z,17.00
2023-05-08T20:53:49.094Z,17.35
2023-05-08T20:56:19.264Z,18.13
2023-05-08T20:58:47.371Z,18.38
2023-05-08T21:01:15.563Z,18.92
2023-05-08T21:03:43.608Z,18.23
2023-05-08T21:06:13.835Z,17.27
2023-05-08T21:08:41.810Z,17.17
2023-05-08T21:11:09.847Z,16.83
2023-05-08T21:13:39.439Z,16.20
2023-05-08T21:16:08.370Z,16.45
2023-05-08T21:18:36.645Z,16.60
2023-05-08T21:21:04.820Z,16.15
2023-05-08T21:23:32.904Z,15.23
2023-05-08T21:26:01.000Z,15.27
2023-05-08T21:28:29.236Z,15.55
2023-05-08T21:30:59.116Z,15.55
2023-05-08T21:33:27.271Z,15.27
2023-05-08T21:35:55.316Z,15.55
2023-05-08T21:38:23.346Z,14.68
2023-05-08T21:40:51.370Z,15.02
2023-05-08T21:43:19.443Z,14.73
2023-05-08T21:45:47.501Z,14.20
2023-05-08T21:48:16.924Z,14.98
2023-05-08T21:50:44.933Z,15.95
2023-05-08T21:53:12.963Z,14.15
2023-05-08T21:55:40.991Z,14.73
2023-05-08T21:58:09.041Z,15.18
2023-05-08T22:00:37.038Z,15.10
2023-05-08T22:03:05.650Z,15.20
2023-05-08T22:05:35.183Z,14.57
2023-05-08T22:08:03.383Z,14.35
2023-05-08T22:10:31.380Z,14.68
2023-05-08T22:13:00.627Z,14.68
2023-05-08T22:15:30.739Z,15.38
2023-05-08T22:17:59.531Z,15.60
2023-05-08T22:20:27.728Z,14.60
2023-05-08T22:22:57.215Z,15.55
2023-05-08T22:25:25.711Z,16.05
2023-05-08T22:27:54.096Z,15.23
2023-05-08T22:30:22.371Z,16.10
2023-05-08T22:32:55.586Z,15.68
2023-05-08T22:35:24.620Z,15.75
2023-05-08T22:37:53.688Z,15.93
2023-05-08T22:40:23.313Z,15.98
2023-05-08T22:42:53.509Z,15.68
2023-05-08T22:45:23.508Z,15.20
2023-05-08T22:47:51.692Z,16.52
2023-05-08T22:50:20.034Z,15.88
2023-05-08T22:52:48.124Z,16.42
2023-05-08T22:55:16.935Z,17.27
2023-05-08T22:57:46.600Z,16.92
2023-05-08T23:00:16.262Z,15.35
2023-05-08T23:02:44.396Z,17.15
2023-05-08T23:05:12.686Z,16.17
2023-05-08T23:07:40.934Z,16.25
2023-05-08T23:10:09.694Z,16.48
2023-05-08T23:12:37.722Z,17.65
2023-05-08T23:15:08.427Z,17.42
2023-05-08T23:17:36.599Z,17.55
2023-05-08T23:20:05.902Z,17.60
2023-05-08T23:22:33.960Z,17.50
2023-05-08T23:25:02.085Z,18.40
2023-05-08T23:27:30.072Z,18.63
2023-05-08T23:29:58.080Z,18.65
2023-05-08T23:32:27.494Z,18.58
2023-05-08T23:34:55.553Z,17.83
2023-05-08T23:37:23.584Z,18.48
2023-05-08T23:39:51.750Z,18.48
2023-05-08T23:42:20.428Z,19.30
2023-05-08T23:44:48.453Z,18.40
2023-05-08T23:47:16.516Z,18.58
2023-05-08T23:49:45.945Z,19.35
2023-05-08T23:52:14.036Z,18.85
2023-05-08T23:54:42.128Z,18.55
2023-05-08T23:57:10.147Z,18.30
2023-05-08T23:59:38.194Z,17.73
